Portada
METAR-TAF:

METAR-TAF

Aeropuertos :

Pohnpei, Micronesia

Aeropuerto Internacional de Pohnpei

latitud: 06-59N, longitud: 158-12E, altitud: 2 m

Observación

El informe se hizo hace 1 hora y 2 minutos, a las 00:50 UTC
Viento 10 kt del este-noreste
Temperatura 31°C
Humedad 71%
Presión 1010 hPa
Visibilidad: 24.1 km
Cielo nuboso a una altura de 1700 ft, Cumulus congestus.
Cielo nuboso a una altura de 13000 ft
Cielo cubierto a una altura de 30000 ft

METAR: PTPN 280050Z 07010KT 15SM BKN017TCU BKN130 OVC300 31/25 A2983 RMK TCU SE-SW

Hora: 12:52 (01:52 UTC)

Pronóstico

El informe se hizo hace 2 horas y 26 minutos, a las 23:26 UTC
Pronóstico válido del 28 a las 00 UTC al 28 a las 24 UTC
Viento 11 kt del este
Visibilidad: 10 km
Cielo nuboso a una altura de 1700 ft
Cielo nuboso a una altura de 13000 ft
chaparrones en las proximidades

TAF: PTPN 272326Z 2800/2824 08011KT P6SM VCSH BKN017 BKN130

Observaciones y pronósticos meteorológicos de más de 4000 aeropuertos (mensajes METAR y TAF).

Los puntos amarillos y rojos representan las estaciones disponibles.

Ponga el ratón en el punto deseado para ver el nombre de la estación.

Haga clic para ver las observaciones y los pronósticos meteorológicos.

Para cambiar el mapa : haga clic en los botones verdes con una cruz de color negro para hacer un zoom, en el botón verde con un guión para alejar o en las flechas verdes para mapas adyacentes.


METAR-TAF: